sensor_id;sensor_type;location;lat;lon;timestamp;temperature;humidity
22224;DHT22;11281;52.194;21.006;2022-08-19T00:04:13;19.00;99.90
22224;DHT22;11281;52.194;21.006;2022-08-19T00:08:36;18.90;99.90
22224;DHT22;11281;52.194;21.006;2022-08-19T00:12:57;18.90;99.90
22224;DHT22;11281;52.194;21.006;2022-08-19T00:17:20;18.80;99.90
22224;DHT22;11281;52.194;21.006;2022-08-19T00:21:42;18.80;99.90
22224;DHT22;11281;52.194;21.006;2022-08-19T00:26:05;18.80;99.90
22224;DHT22;11281;52.194;21.006;2022-08-19T00:30:27;18.70;99.90
22224;DHT22;11281;52.194;21.006;2022-08-19T00:34:49;18.80;99.90
22224;DHT22;11281;52.194;21.006;2022-08-19T00:39:13;18.80;99.90
22224;DHT22;11281;52.194;21.006;2022-08-19T00:43:36;18.60;99.90
22224;DHT22;11281;52.194;21.006;2022-08-19T00:48:00;18.60;99.90
22224;DHT22;11281;52.194;21.006;2022-08-19T00:52:28;18.60;99.90
22224;DHT22;11281;52.194;21.006;2022-08-19T00:56:52;18.50;99.90
22224;DHT22;11281;52.194;21.006;2022-08-19T01:01:14;18.50;99.90
22224;DHT22;11281;52.194;21.006;2022-08-19T01:05:37;18.40;99.90
22224;DHT22;11281;52.194;21.006;2022-08-19T01:10:02;18.40;99.90
22224;DHT22;11281;52.194;21.006;2022-08-19T01:14:25;18.40;99.90
22224;DHT22;11281;52.194;21.006;2022-08-19T01:18:47;18.40;99.90
22224;DHT22;11281;52.194;21.006;2022-08-19T01:23:10;18.30;99.90
22224;DHT22;11281;52.194;21.006;2022-08-19T01:27:38;18.30;99.90
22224;DHT22;11281;52.194;21.006;2022-08-19T01:32:01;18.30;99.90
22224;DHT22;11281;52.194;21.006;2022-08-19T01:36:36;18.40;99.90
22224;DHT22;11281;52.194;21.006;2022-08-19T01:40:59;18.40;99.90
22224;DHT22;11281;52.194;21.006;2022-08-19T01:45:23;18.40;99.90
22224;DHT22;11281;52.194;21.006;2022-08-19T01:49:47;18.40;99.90
22224;DHT22;11281;52.194;21.006;2022-08-19T01:54:12;18.30;99.90
22224;DHT22;11281;52.194;21.006;2022-08-19T01:58:43;18.40;99.90
22224;DHT22;11281;52.194;21.006;2022-08-19T02:03:07;18.30;99.90
22224;DHT22;11281;52.194;21.006;2022-08-19T02:07:30;18.30;99.90
22224;DHT22;11281;52.194;21.006;2022-08-19T02:11:53;18.30;99.90
22224;DHT22;11281;52.194;21.006;2022-08-19T02:16:17;18.30;99.90
22224;DHT22;11281;52.194;21.006;2022-08-19T02:20:40;18.40;99.90
22224;DHT22;11281;52.194;21.006;2022-08-19T02:25:04;18.30;99.90
22224;DHT22;11281;52.194;21.006;2022-08-19T02:29:26;18.30;99.90
22224;DHT22;11281;52.194;21.006;2022-08-19T02:33:48;18.50;99.90
22224;DHT22;11281;52.194;21.006;2022-08-19T02:38:10;18.60;99.90
22224;DHT22;11281;52.194;21.006;2022-08-19T02:42:46;18.70;99.90
22224;DHT22;11281;52.194;21.006;2022-08-19T02:47:09;18.80;99.90
22224;DHT22;11281;52.194;21.006;2022-08-19T02:51:34;18.70;99.90
22224;DHT22;11281;52.194;21.006;2022-08-19T02:55:57;18.70;99.90
22224;DHT22;11281;52.194;21.006;2022-08-19T03:00:19;18.70;99.90
22224;DHT22;11281;52.194;21.006;2022-08-19T03:04:41;18.60;99.90
22224;DHT22;11281;52.194;21.006;2022-08-19T03:09:03;18.60;99.90
22224;DHT22;11281;52.194;21.006;2022-08-19T03:13:25;18.70;99.90
22224;DHT22;11281;52.194;21.006;2022-08-19T03:17:46;18.70;99.90
22224;DHT22;11281;52.194;21.006;2022-08-19T03:22:09;18.80;99.90
22224;DHT22;11281;52.194;21.006;2022-08-19T03:26:31;18.70;99.90
22224;DHT22;11281;52.194;21.006;2022-08-19T03:31:07;18.60;99.90
22224;DHT22;11281;52.194;21.006;2022-08-19T03:35:33;18.50;99.90
22224;DHT22;11281;52.194;21.006;2022-08-19T03:39:57;18.40;99.90
22224;DHT22;11281;52.194;21.006;2022-08-19T03:44:21;18.40;99.90
22224;DHT22;11281;52.194;21.006;2022-08-19T03:48:43;18.40;99.90
22224;DHT22;11281;52.194;21.006;2022-08-19T03:53:05;18.50;99.90
22224;DHT22;11281;52.194;21.006;2022-08-19T03:57:28;18.40;99.90
22224;DHT22;11281;52.194;21.006;2022-08-19T04:01:50;18.60;99.90
22224;DHT22;11281;52.194;21.006;2022-08-19T04:06:14;18.50;99.90
22224;DHT22;11281;52.194;21.006;2022-08-19T04:10:39;18.50;99.90
22224;DHT22;11281;52.194;21.006;2022-08-19T04:15:02;18.60;99.90
22224;DHT22;11281;52.194;21.006;2022-08-19T04:19:25;18.70;99.90
22224;DHT22;11281;52.194;21.006;2022-08-19T04:23:48;18.80;99.90
22224;DHT22;11281;52.194;21.006;2022-08-19T04:28:12;18.90;99.90
22224;DHT22;11281;52.194;21.006;2022-08-19T04:32:34;19.00;99.90
22224;DHT22;11281;52.194;21.006;2022-08-19T04:36:58;19.20;99.90
22224;DHT22;11281;52.194;21.006;2022-08-19T04:41:19;19.30;99.90
22224;DHT22;11281;52.194;21.006;2022-08-19T04:46:07;19.40;99.90
22224;DHT22;11281;52.194;21.006;2022-08-19T04:50:31;19.50;99.90
22224;DHT22;11281;52.194;21.006;2022-08-19T04:54:54;19.60;99.90
22224;DHT22;11281;52.194;21.006;2022-08-19T04:59:17;19.80;99.90
22224;DHT22;11281;52.194;21.006;2022-08-19T05:03:40;19.90;99.90
22224;DHT22;11281;52.194;21.006;2022-08-19T05:08:02;20.10;99.90
22224;DHT22;11281;52.194;21.006;2022-08-19T05:12:24;20.20;99.90
22224;DHT22;11281;52.194;21.006;2022-08-19T05:16:47;20.40;99.90
22224;DHT22;11281;52.194;21.006;2022-08-19T05:21:11;20.60;99.90
22224;DHT22;11281;52.194;21.006;2022-08-19T05:25:52;20.80;99.90
22224;DHT22;11281;52.194;21.006;2022-08-19T05:30:15;20.90;99.90
22224;DHT22;11281;52.194;21.006;2022-08-19T05:34:37;21.00;99.90
22224;DHT22;11281;52.194;21.006;2022-08-19T05:38:59;21.70;99.90
22224;DHT22;11281;52.194;21.006;2022-08-19T05:43:21;21.40;99.90
22224;DHT22;11281;52.194;21.006;2022-08-19T05:47:43;21.20;99.90
22224;DHT22;11281;52.194;21.006;2022-08-19T05:52:10;21.20;99.90
22224;DHT22;11281;52.194;21.006;2022-08-19T05:56:33;21.40;99.90
22224;DHT22;11281;52.194;21.006;2022-08-19T06:00:58;21.60;99.90
22224;DHT22;11281;52.194;21.006;2022-08-19T06:05:25;21.70;99.90
22224;DHT22;11281;52.194;21.006;2022-08-19T06:09:47;21.80;99.90
22224;DHT22;11281;52.194;21.006;2022-08-19T06:14:17;22.00;99.90
22224;DHT22;11281;52.194;21.006;2022-08-19T06:18:41;22.20;99.90
22224;DHT22;11281;52.194;21.006;2022-08-19T06:23:05;22.30;99.90
22224;DHT22;11281;52.194;21.006;2022-08-19T06:27:27;23.60;99.90
22224;DHT22;11281;52.194;21.006;2022-08-19T06:31:54;25.20;99.90
22224;DHT22;11281;52.194;21.006;2022-08-19T06:36:26;24.50;99.90
22224;DHT22;11281;52.194;21.006;2022-08-19T06:41:01;24.60;99.90
22224;DHT22;11281;52.194;21.006;2022-08-19T06:45:24;25.20;99.90
22224;DHT22;11281;52.194;21.006;2022-08-19T06:49:47;25.10;99.90
22224;DHT22;11281;52.194;21.006;2022-08-19T06:54:09;25.30;99.90
22224;DHT22;11281;52.194;21.006;2022-08-19T06:58:31;25.80;99.90
22224;DHT22;11281;52.194;21.006;2022-08-19T07:02:53;25.80;99.90
22224;DHT22;11281;52.194;21.006;2022-08-19T07:07:15;26.10;99.90
22224;DHT22;11281;52.194;21.006;2022-08-19T07:11:37;25.90;99.90
22224;DHT22;11281;52.194;21.006;2022-08-19T07:15:58;25.90;99.90
22224;DHT22;11281;52.194;21.006;2022-08-19T07:20:25;25.70;99.90
22224;DHT22;11281;52.194;21.006;2022-08-19T07:24:47;25.80;99.90
22224;DHT22;11281;52.194;21.006;2022-08-19T07:29:10;25.90;99.90
22224;DHT22;11281;52.194;21.006;2022-08-19T07:33:33;26.00;99.90
22224;DHT22;11281;52.194;21.006;2022-08-19T07:37:58;26.20;99.90
22224;DHT22;11281;52.194;21.006;2022-08-19T07:42:24;26.10;99.90
22224;DHT22;11281;52.194;21.006;2022-08-19T07:46:51;26.30;99.90
22224;DHT22;11281;52.194;21.006;2022-08-19T07:51:19;26.30;99.90
22224;DHT22;11281;52.194;21.006;2022-08-19T07:55:42;26.30;99.90
22224;DHT22;11281;52.194;21.006;2022-08-19T08:00:04;26.40;99.90
22224;DHT22;11281;52.194;21.006;2022-08-19T08:04:28;26.40;99.90
22224;DHT22;11281;52.194;21.006;2022-08-19T08:09:10;26.60;99.90
22224;DHT22;11281;52.194;21.006;2022-08-19T08:13:32;26.80;99.90
22224;DHT22;11281;52.194;21.006;2022-08-19T08:17:56;26.80;99.90
22224;DHT22;11281;52.194;21.006;2022-08-19T08:22:20;26.90;99.90
22224;DHT22;11281;52.194;21.006;2022-08-19T08:27:02;27.20;99.90
22224;DHT22;11281;52.194;21.006;2022-08-19T08:31:25;27.20;99.90
22224;DHT22;11281;52.194;21.006;2022-08-19T08:35:47;27.20;99.90
22224;DHT22;11281;52.194;21.006;2022-08-19T08:44:51;27.10;99.90
22224;DHT22;11281;52.194;21.006;2022-08-19T08:49:33;27.50;99.90
22224;DHT22;11281;52.194;21.006;2022-08-19T08:54:07;27.60;99.90
22224;DHT22;11281;52.194;21.006;2022-08-19T08:58:57;27.50;99.90
22224;DHT22;11281;52.194;21.006;2022-08-19T09:03:23;27.80;99.90
22224;DHT22;11281;52.194;21.006;2022-08-19T09:17:32;27.90;99.90
22224;DHT22;11281;52.194;21.006;2022-08-19T09:21:55;27.90;99.90
22224;DHT22;11281;52.194;21.006;2022-08-19T09:26:19;27.90;99.90
22224;DHT22;11281;52.194;21.006;2022-08-19T09:30:42;27.80;99.90
22224;DHT22;11281;52.194;21.006;2022-08-19T09:35:04;27.80;99.90
22224;DHT22;11281;52.194;21.006;2022-08-19T09:39:27;28.00;99.90
22224;DHT22;11281;52.194;21.006;2022-08-19T09:43:51;28.00;99.90
22224;DHT22;11281;52.194;21.006;2022-08-19T09:48:14;28.20;99.90
22224;DHT22;11281;52.194;21.006;2022-08-19T09:52:37;28.50;99.90
22224;DHT22;11281;52.194;21.006;2022-08-19T09:56:59;28.50;99.90
22224;DHT22;11281;52.194;21.006;2022-08-19T10:01:25;28.50;99.90
22224;DHT22;11281;52.194;21.006;2022-08-19T10:05:47;28.40;99.90
22224;DHT22;11281;52.194;21.006;2022-08-19T10:10:09;28.60;99.90
22224;DHT22;11281;52.194;21.006;2022-08-19T10:14:32;28.50;99.90
22224;DHT22;11281;52.194;21.006;2022-08-19T10:18:54;28.90;99.90
22224;DHT22;11281;52.194;21.006;2022-08-19T10:23:17;28.80;99.90
22224;DHT22;11281;52.194;21.006;2022-08-19T10:27:40;29.10;99.90
22224;DHT22;11281;52.194;21.006;2022-08-19T10:32:03;29.00;99.90
22224;DHT22;11281;52.194;21.006;2022-08-19T10:36:34;28.90;99.90
22224;DHT22;11281;52.194;21.006;2022-08-19T10:40:57;28.90;99.90
22224;DHT22;11281;52.194;21.006;2022-08-19T10:45:19;29.20;99.90
22224;DHT22;11281;52.194;21.006;2022-08-19T10:49:44;29.50;99.90
22224;DHT22;11281;52.194;21.006;2022-08-19T10:54:25;29.30;99.90
22224;DHT22;11281;52.194;21.006;2022-08-19T10:59:07;29.30;99.90
22224;DHT22;11281;52.194;21.006;2022-08-19T11:03:29;29.50;99.90
22224;DHT22;11281;52.194;21.006;2022-08-19T11:07:51;29.80;99.90
22224;DHT22;11281;52.194;21.006;2022-08-19T11:12:13;29.50;99.90
22224;DHT22;11281;52.194;21.006;2022-08-19T11:16:37;29.40;99.90
22224;DHT22;11281;52.194;21.006;2022-08-19T11:21:10;29.70;99.90
22224;DHT22;11281;52.194;21.006;2022-08-19T11:25:39;29.70;99.90
22224;DHT22;11281;52.194;21.006;2022-08-19T11:30:00;29.60;99.90
22224;DHT22;11281;52.194;21.006;2022-08-19T11:34:26;29.70;99.90
22224;DHT22;11281;52.194;21.006;2022-08-19T11:38:50;29.60;99.90
22224;DHT22;11281;52.194;21.006;2022-08-19T11:43:12;29.60;99.90
22224;DHT22;11281;52.194;21.006;2022-08-19T11:47:34;29.70;99.90
22224;DHT22;11281;52.194;21.006;2022-08-19T11:51:55;29.50;99.90
22224;DHT22;11281;52.194;21.006;2022-08-19T11:56:18;29.60;99.90
22224;DHT22;11281;52.194;21.006;2022-08-19T12:00:41;29.50;99.90
22224;DHT22;11281;52.194;21.006;2022-08-19T12:05:03;29.50;99.90
22224;DHT22;11281;52.194;21.006;2022-08-19T12:09:25;29.80;99.90
22224;DHT22;11281;52.194;21.006;2022-08-19T12:13:47;30.00;99.90
22224;DHT22;11281;52.194;21.006;2022-08-19T12:18:09;29.80;99.90
22224;DHT22;11281;52.194;21.006;2022-08-19T12:22:31;29.90;99.90
22224;DHT22;11281;52.194;21.006;2022-08-19T12:26:53;29.80;99.90
22224;DHT22;11281;52.194;21.006;2022-08-19T12:31:17;29.80;99.90
22224;DHT22;11281;52.194;21.006;2022-08-19T12:35:43;29.80;99.90
22224;DHT22;11281;52.194;21.006;2022-08-19T12:40:08;30.10;99.90
22224;DHT22;11281;52.194;21.006;2022-08-19T12:44:30;30.10;99.90
22224;DHT22;11281;52.194;21.006;2022-08-19T12:48:53;30.00;97.80
22224;DHT22;11281;52.194;21.006;2022-08-19T12:53:15;30.00;99.70
22224;DHT22;11281;52.194;21.006;2022-08-19T12:57:37;30.00;99.90
22224;DHT22;11281;52.194;21.006;2022-08-19T13:01:59;30.00;99.90
22224;DHT22;11281;52.194;21.006;2022-08-19T13:06:21;29.90;98.60
22224;DHT22;11281;52.194;21.006;2022-08-19T13:10:43;30.10;99.90
22224;DHT22;11281;52.194;21.006;2022-08-19T13:15:05;29.90;99.90
22224;DHT22;11281;52.194;21.006;2022-08-19T13:19:28;29.90;98.80
22224;DHT22;11281;52.194;21.006;2022-08-19T13:23:52;30.00;99.20
22224;DHT22;11281;52.194;21.006;2022-08-19T13:28:13;30.10;96.20
22224;DHT22;11281;52.194;21.006;2022-08-19T13:32:35;30.10;96.00
22224;DHT22;11281;52.194;21.006;2022-08-19T13:37:16;29.90;98.00
22224;DHT22;11281;52.194;21.006;2022-08-19T13:41:58;29.90;99.00
22224;DHT22;11281;52.194;21.006;2022-08-19T13:46:21;29.70;99.70
22224;DHT22;11281;52.194;21.006;2022-08-19T13:50:45;29.70;99.90
22224;DHT22;11281;52.194;21.006;2022-08-19T13:55:09;29.80;99.90
22224;DHT22;11281;52.194;21.006;2022-08-19T13:59:32;29.80;99.90
22224;DHT22;11281;52.194;21.006;2022-08-19T14:03:54;29.90;99.90
22224;DHT22;11281;52.194;21.006;2022-08-19T14:08:16;30.00;99.40
22224;DHT22;11281;52.194;21.006;2022-08-19T14:12:39;30.00;97.50
22224;DHT22;11281;52.194;21.006;2022-08-19T14:17:01;29.50;98.80
22224;DHT22;11281;52.194;21.006;2022-08-19T14:21:24;29.90;98.70
22224;DHT22;11281;52.194;21.006;2022-08-19T14:25:46;29.80;97.70
22224;DHT22;11281;52.194;21.006;2022-08-19T14:30:11;29.90;98.40
22224;DHT22;11281;52.194;21.006;2022-08-19T14:34:35;29.70;97.80
22224;DHT22;11281;52.194;21.006;2022-08-19T14:38:58;29.70;98.80
22224;DHT22;11281;52.194;21.006;2022-08-19T14:43:21;29.70;97.40
22224;DHT22;11281;52.194;21.006;2022-08-19T14:47:43;29.60;98.20
22224;DHT22;11281;52.194;21.006;2022-08-19T14:52:06;29.60;96.50
22224;DHT22;11281;52.194;21.006;2022-08-19T14:56:29;29.40;98.80
22224;DHT22;11281;52.194;21.006;2022-08-19T15:00:51;29.40;98.80
22224;DHT22;11281;52.194;21.006;2022-08-19T15:05:13;29.30;99.90
22224;DHT22;11281;52.194;21.006;2022-08-19T15:09:35;28.90;99.90
22224;DHT22;11281;52.194;21.006;2022-08-19T15:13:57;28.70;99.90
22224;DHT22;11281;52.194;21.006;2022-08-19T15:18:19;28.70;99.40
22224;DHT22;11281;52.194;21.006;2022-08-19T15:22:41;28.40;99.90
22224;DHT22;11281;52.194;21.006;2022-08-19T15:27:04;28.40;99.90
22224;DHT22;11281;52.194;21.006;2022-08-19T15:31:27;28.20;99.90
22224;DHT22;11281;52.194;21.006;2022-08-19T15:35:49;28.30;99.90
22224;DHT22;11281;52.194;21.006;2022-08-19T15:40:11;28.30;99.90
22224;DHT22;11281;52.194;21.006;2022-08-19T15:44:33;28.50;99.90
22224;DHT22;11281;52.194;21.006;2022-08-19T15:48:55;28.40;99.90
22224;DHT22;11281;52.194;21.006;2022-08-19T15:53:18;28.10;99.90
22224;DHT22;11281;52.194;21.006;2022-08-19T15:57:39;28.20;99.90
22224;DHT22;11281;52.194;21.006;2022-08-19T16:02:23;28.20;99.90
22224;DHT22;11281;52.194;21.006;2022-08-19T16:07:04;28.10;99.90
22224;DHT22;11281;52.194;21.006;2022-08-19T16:11:32;28.10;99.90
22224;DHT22;11281;52.194;21.006;2022-08-19T16:15:54;27.90;99.90
22224;DHT22;11281;52.194;21.006;2022-08-19T16:20:17;27.70;99.90
22224;DHT22;11281;52.194;21.006;2022-08-19T16:24:42;27.50;99.90
22224;DHT22;11281;52.194;21.006;2022-08-19T16:29:05;27.50;99.90
22224;DHT22;11281;52.194;21.006;2022-08-19T16:33:29;27.10;99.90
22224;DHT22;11281;52.194;21.006;2022-08-19T16:37:51;27.00;99.90
22224;DHT22;11281;52.194;21.006;2022-08-19T16:42:14;26.90;99.90
22224;DHT22;11281;52.194;21.006;2022-08-19T16:46:36;26.80;99.90
22224;DHT22;11281;52.194;21.006;2022-08-19T16:51:00;26.90;99.90
22224;DHT22;11281;52.194;21.006;2022-08-19T16:55:23;26.50;99.90
22224;DHT22;11281;52.194;21.006;2022-08-19T16:59:45;26.40;99.90
22224;DHT22;11281;52.194;21.006;2022-08-19T17:04:07;26.20;99.90
22224;DHT22;11281;52.194;21.006;2022-08-19T17:08:30;26.30;99.90
22224;DHT22;11281;52.194;21.006;2022-08-19T17:12:52;26.20;99.90
22224;DHT22;11281;52.194;21.006;2022-08-19T17:17:15;26.20;99.90
22224;DHT22;11281;52.194;21.006;2022-08-19T17:21:37;26.00;99.90
22224;DHT22;11281;52.194;21.006;2022-08-19T17:26:00;25.90;99.90
22224;DHT22;11281;52.194;21.006;2022-08-19T17:30:23;25.90;99.90
22224;DHT22;11281;52.194;21.006;2022-08-19T17:34:45;25.80;99.90
22224;DHT22;11281;52.194;21.006;2022-08-19T17:39:07;25.50;99.90
22224;DHT22;11281;52.194;21.006;2022-08-19T17:43:30;25.30;99.90
22224;DHT22;11281;52.194;21.006;2022-08-19T17:47:53;25.10;99.90
22224;DHT22;11281;52.194;21.006;2022-08-19T17:52:15;24.70;99.90
22224;DHT22;11281;52.194;21.006;2022-08-19T17:56:37;24.70;99.90
22224;DHT22;11281;52.194;21.006;2022-08-19T18:00:59;24.40;99.90
22224;DHT22;11281;52.194;21.006;2022-08-19T18:05:28;24.20;99.90
22224;DHT22;11281;52.194;21.006;2022-08-19T18:09:51;24.10;99.90
22224;DHT22;11281;52.194;21.006;2022-08-19T18:14:15;23.90;99.90
22224;DHT22;11281;52.194;21.006;2022-08-19T18:18:41;23.90;99.90
22224;DHT22;11281;52.194;21.006;2022-08-19T18:23:03;23.60;99.90
22224;DHT22;11281;52.194;21.006;2022-08-19T18:27:25;23.50;99.90
22224;DHT22;11281;52.194;21.006;2022-08-19T18:31:48;23.40;99.90
22224;DHT22;11281;52.194;21.006;2022-08-19T18:36:09;23.20;99.90
22224;DHT22;11281;52.194;21.006;2022-08-19T18:40:31;22.90;99.90
22224;DHT22;11281;52.194;21.006;2022-08-19T18:45:12;22.90;99.90
22224;DHT22;11281;52.194;21.006;2022-08-19T18:49:52;22.80;99.90
22224;DHT22;11281;52.194;21.006;2022-08-19T18:54:14;22.70;99.90
22224;DHT22;11281;52.194;21.006;2022-08-19T18:58:37;22.80;99.90
22224;DHT22;11281;52.194;21.006;2022-08-19T19:02:59;22.70;99.90
22224;DHT22;11281;52.194;21.006;2022-08-19T19:07:20;22.70;99.90
22224;DHT22;11281;52.194;21.006;2022-08-19T19:11:45;22.60;99.90
22224;DHT22;11281;52.194;21.006;2022-08-19T19:16:10;22.60;99.90
22224;DHT22;11281;52.194;21.006;2022-08-19T19:20:32;22.70;99.90
22224;DHT22;11281;52.194;21.006;2022-08-19T19:24:54;22.50;99.90
22224;DHT22;11281;52.194;21.006;2022-08-19T19:29:16;22.30;99.90
22224;DHT22;11281;52.194;21.006;2022-08-19T19:33:40;22.20;99.90
22224;DHT22;11281;52.194;21.006;2022-08-19T19:38:02;22.30;99.90
22224;DHT22;11281;52.194;21.006;2022-08-19T19:42:24;22.10;99.90
22224;DHT22;11281;52.194;21.006;2022-08-19T19:46:46;22.00;99.90
22224;DHT22;11281;52.194;21.006;2022-08-19T19:51:08;21.90;99.90
22224;DHT22;11281;52.194;21.006;2022-08-19T19:55:30;21.80;99.90
22224;DHT22;11281;52.194;21.006;2022-08-19T19:59:52;21.80;99.90
22224;DHT22;11281;52.194;21.006;2022-08-19T20:04:15;21.80;99.90
22224;DHT22;11281;52.194;21.006;2022-08-19T20:08:38;21.70;99.90
22224;DHT22;11281;52.194;21.006;2022-08-19T20:13:18;21.60;99.90
22224;DHT22;11281;52.194;21.006;2022-08-19T20:17:40;21.60;99.90
22224;DHT22;11281;52.194;21.006;2022-08-19T20:22:05;21.60;99.90
22224;DHT22;11281;52.194;21.006;2022-08-19T20:26:27;21.40;99.90
22224;DHT22;11281;52.194;21.006;2022-08-19T20:30:49;21.50;99.90
22224;DHT22;11281;52.194;21.006;2022-08-19T20:35:19;21.60;99.90
22224;DHT22;11281;52.194;21.006;2022-08-19T20:39:41;21.70;99.90
22224;DHT22;11281;52.194;21.006;2022-08-19T20:44:04;21.60;99.90
22224;DHT22;11281;52.194;21.006;2022-08-19T20:48:27;21.70;99.90
22224;DHT22;11281;52.194;21.006;2022-08-19T20:52:49;21.70;99.90
22224;DHT22;11281;52.194;21.006;2022-08-19T20:57:10;21.60;99.90
22224;DHT22;11281;52.194;21.006;2022-08-19T21:01:32;21.60;99.90
22224;DHT22;11281;52.194;21.006;2022-08-19T21:05:55;21.60;99.90
22224;DHT22;11281;52.194;21.006;2022-08-19T21:10:17;21.70;99.90
22224;DHT22;11281;52.194;21.006;2022-08-19T21:14:41;21.60;99.90
22224;DHT22;11281;52.194;21.006;2022-08-19T21:19:05;21.50;99.90
22224;DHT22;11281;52.194;21.006;2022-08-19T21:23:28;21.40;99.90
22224;DHT22;11281;52.194;21.006;2022-08-19T21:27:51;21.40;99.90
22224;DHT22;11281;52.194;21.006;2022-08-19T21:32:13;21.40;99.90
22224;DHT22;11281;52.194;21.006;2022-08-19T21:36:34;21.40;99.90
22224;DHT22;11281;52.194;21.006;2022-08-19T21:40:56;21.30;99.90
22224;DHT22;11281;52.194;21.006;2022-08-19T21:45:18;21.30;99.90
22224;DHT22;11281;52.194;21.006;2022-08-19T21:49:41;21.60;99.90
22224;DHT22;11281;52.194;21.006;2022-08-19T21:54:03;21.40;99.90
22224;DHT22;11281;52.194;21.006;2022-08-19T21:58:25;21.30;99.90
22224;DHT22;11281;52.194;21.006;2022-08-19T22:02:48;21.30;99.90
22224;DHT22;11281;52.194;21.006;2022-08-19T22:07:11;21.30;99.90
22224;DHT22;11281;52.194;21.006;2022-08-19T22:11:34;21.20;99.90
22224;DHT22;11281;52.194;21.006;2022-08-19T22:32:53;21.20;99.90
22224;DHT22;11281;52.194;21.006;2022-08-19T22:37:16;21.30;99.90
22224;DHT22;11281;52.194;21.006;2022-08-19T22:41:38;21.20;99.90
22224;DHT22;11281;52.194;21.006;2022-08-19T22:46:01;21.20;99.90
22224;DHT22;11281;52.194;21.006;2022-08-19T22:50:23;21.20;99.90
22224;DHT22;11281;52.194;21.006;2022-08-19T22:54:51;21.30;99.90
22224;DHT22;11281;52.194;21.006;2022-08-19T22:59:14;21.30;99.90
22224;DHT22;11281;52.194;21.006;2022-08-19T23:03:36;21.30;99.90
22224;DHT22;11281;52.194;21.006;2022-08-19T23:07:57;21.30;99.90
22224;DHT22;11281;52.194;21.006;2022-08-19T23:12:29;21.40;99.90
22224;DHT22;11281;52.194;21.006;2022-08-19T23:16:52;21.70;99.90
22224;DHT22;11281;52.194;21.006;2022-08-19T23:21:14;22.10;99.90
22224;DHT22;11281;52.194;21.006;2022-08-19T23:25:38;22.40;99.90
22224;DHT22;11281;52.194;21.006;2022-08-19T23:30:00;22.10;99.90
22224;DHT22;11281;52.194;21.006;2022-08-19T23:34:40;22.10;99.90
22224;DHT22;11281;52.194;21.006;2022-08-19T23:39:02;21.70;99.90
22224;DHT22;11281;52.194;21.006;2022-08-19T23:43:24;21.60;99.90
22224;DHT22;11281;52.194;21.006;2022-08-19T23:47:50;21.30;99.90
22224;DHT22;11281;52.194;21.006;2022-08-19T23:52:12;21.70;99.90
22224;DHT22;11281;52.194;21.006;2022-08-19T23:56:34;21.70;99.90
